Scandia, Washington
Current Conditions -  °F | °C
As of 9:35 AM on Thursday 23 Oct 2014 (Local Time) from KPWT Reporting Station
Overcast Overcast  
Wind Chill: 50°   Ceiling: 3500
Heat Index: 50°   Visibility: 10mi
Dew Point: 48°   Wind: 9mph
Humidity: 94%   Direction: 170°S
Pressure: 29.79"   Gusts: NA
Location:  47.7571°N, 122.623°W
Report Text: KPWT 231635Z AUTO 17008KT 10SM FEW028 BKN035 OVC050 10/09 A2979 RMK AO1 P0004
Loading
Personal Weather Stations






























Interactive Weather Map
Tropical Storm Tracking
New forecast layout! Learn more

10-Day Weather Forecast

Advertisements
Track Severe Weather on mobile